Time;durP1;ratioP1;P1;durP2;ratioP2;P2;SDS_P1;SDS_P2;PMS_P1;PMS_P2;Temp;Humidity;BMP_temperature;BMP_pressure;BME280_temperature;BME280_humidity;BME280_pressure;Samples;Min_cycle;Max_cycle;Signal;HPM_P1;HPM_P2
2021/12/15 00:01:48;;;;;;;28.70;15.97;;;;;;;2.12;100.00;97400.47;5117026;28;20438;-37
2021/12/15 00:04:16;;;;;;;35.67;17.90;;;;;;;2.04;100.00;97407.38;5116615;28;20474;-36
2021/12/15 00:06:43;;;;;;;31.43;15.80;;;;;;;2.02;100.00;97398.88;5116553;28;20478;-36
2021/12/15 00:09:13;;;;;;;27.53;13.10;;;;;;;2.09;100.00;97411.28;5116700;28;20496;-37
2021/12/15 00:11:42;;;;;;;29.20;15.00;;;;;;;2.10;100.00;97416.34;5116721;28;20460;-36
2021/12/15 00:14:12;;;;;;;34.03;17.67;;;;;;;2.14;100.00;97419.47;5116358;28;21012;-37
2021/12/15 00:16:41;;;;;;;46.10;17.83;;;;;;;1.84;100.00;97382.53;5116792;28;20854;-36
2021/12/15 00:19:08;;;;;;;36.33;16.57;;;;;;;2.13;100.00;97412.59;5116655;28;20442;-36
2021/12/15 00:21:37;;;;;;;37.40;16.93;;;;;;;2.14;100.00;97419.47;5116277;28;20438;-36
2021/12/15 00:24:06;;;;;;;38.27;16.20;;;;;;;2.19;100.00;97427.63;5116153;28;20474;-36
2021/12/15 00:26:34;;;;;;;33.33;18.00;;;;;;;2.17;100.00;97422.59;5116482;28;20445;-36
2021/12/15 00:29:03;;;;;;;38.30;18.33;;;;;;;2.13;100.00;97412.59;5116003;28;20984;-36
2021/12/15 00:31:32;;;;;;;41.00;17.53;;;;;;;2.23;100.00;97432.38;5116419;28;20532;-36
2021/12/15 00:34:03;;;;;;;40.37;16.90;;;;;;;2.24;100.00;97435.84;5116883;28;20446;-36
2021/12/15 00:36:31;;;;;;;29.27;14.07;;;;;;;2.19;100.00;97427.63;5115324;28;20477;-36
2021/12/15 00:38:58;;;;;;;30.90;16.77;;;;;;;2.20;100.00;97434.53;5115919;28;20529;-36
2021/12/15 00:41:26;;;;;;;42.37;17.30;;;;;;;2.13;100.00;97420.44;5116164;28;20466;-36
2021/12/15 00:43:53;;;;;;;29.97;17.13;;;;;;;2.14;100.00;97422.09;5116105;28;20473;-36
2021/12/15 00:46:21;;;;;;;35.17;17.67;;;;;;;2.13;100.00;97437.00;5115740;28;20477;-36
2021/12/15 00:48:49;;;;;;;31.83;14.50;;;;;;;2.14;100.00;97435.19;5115898;28;20539;-36
2021/12/15 00:51:18;;;;;;;33.83;15.20;;;;;;;2.13;100.00;97433.53;5115989;28;20442;-36
2021/12/15 00:53:46;;;;;;;31.17;17.37;;;;;;;2.15;100.00;97432.41;5115612;28;20797;-36
2021/12/15 00:56:14;;;;;;;39.53;18.10;;;;;;;2.14;100.00;97428.16;5115928;28;20438;-36
2021/12/15 00:58:41;;;;;;;40.50;15.73;;;;;;;2.11;100.00;97422.41;5115546;28;20480;-36
2021/12/15 01:01:08;;;;;;;35.90;17.20;;;;;;;2.09;100.00;97413.91;5115446;28;20481;-36
2021/12/15 01:03:36;;;;;;;34.77;15.47;;;;;;;1.98;100.00;97405.44;5115310;28;20442;-36
2021/12/15 01:06:09;;;;;;;32.47;13.83;;;;;;;2.01;100.00;97409.50;5115313;28;20441;-37
2021/12/15 01:08:42;;;;;;;36.30;16.97;;;;;;;1.97;100.00;97398.53;5115333;28;20561;-36
2021/12/15 01:11:21;;;;;;;33.60;15.20;;;;;;;1.91;100.00;97404.44;5115292;28;20433;-37
2021/12/15 01:22:09;;;;;;;49.40;17.90;;;;;;;1.91;100.00;97404.44;5115166;28;20921;-37
2021/12/15 01:24:38;;;;;;;37.33;15.53;;;;;;;1.91;100.00;97398.41;5115386;28;20448;-37
2021/12/15 01:27:07;;;;;;;38.07;14.70;;;;;;;1.93;100.00;97407.72;5114939;28;20925;-37
2021/12/15 01:29:36;;;;;;;29.37;14.20;;;;;;;1.93;100.00;97407.72;5115187;28;20517;-36
2021/12/15 01:32:05;;;;;;;34.23;15.90;;;;;;;1.91;100.00;97399.22;5115159;28;20442;-37
2021/12/15 01:34:32;;;;;;;36.23;16.60;;;;;;;1.89;100.00;97402.97;5114775;28;20447;-37
2021/12/15 01:37:00;;;;;;;31.90;14.47;;;;;;;1.88;100.00;97404.78;5114717;28;20805;-37
2021/12/15 01:39:27;;;;;;;30.00;14.90;;;;;;;1.88;100.00;97393.50;5114689;28;20837;-37
2021/12/15 01:41:57;;;;;;;26.90;13.07;;;;;;;1.91;100.00;97393.97;5114690;28;20444;-37
2021/12/15 01:47:10;;;;;;;28.33;12.37;;;;;;;1.85;100.00;97389.41;5114969;28;20422;-36
2021/12/15 01:49:40;;;;;;;32.80;15.70;;;;;;;1.86;100.00;97390.22;5113662;28;20485;-37
2021/12/15 01:52:13;;;;;;;29.57;13.03;;;;;;;1.81;100.00;97380.25;5114492;28;20529;-37
2021/12/15 01:54:43;;;;;;;23.13;10.60;;;;;;;1.81;100.00;97388.13;5114461;28;20442;-37
2021/12/15 01:57:14;;;;;;;32.13;13.20;;;;;;;1.82;100.00;97384.50;5114724;28;20442;-37
2021/12/15 01:59:42;;;;;;;27.60;13.90;;;;;;;1.84;100.00;97398.25;5114430;28;20922;-37
2021/12/15 02:02:09;;;;;;;29.23;14.90;;;;;;;1.84;100.00;97379.91;5114708;28;20525;-37
2021/12/15 02:04:37;;;;;;;33.20;16.60;;;;;;;1.84;100.00;97387.78;5114280;28;20988;-37
2021/12/15 02:07:08;;;;;;;37.20;17.80;;;;;;;1.88;100.00;97399.56;5114161;28;20445;-37
2021/12/15 02:10:03;;;;;;;43.17;16.73;;;;;;;1.83;100.00;97386.97;5114197;28;20474;-37
2021/12/15 02:12:36;;;;;;;35.63;15.13;;;;;;;1.91;100.00;97396.59;5114271;28;20527;-36
2021/12/15 02:15:09;;;;;;;54.00;25.47;;;;;;;1.77;100.00;97381.56;5114392;28;20441;-37
2021/12/15 02:17:37;;;;;;;37.93;18.07;;;;;;;1.86;100.00;97396.28;5114115;28;20510;-37
2021/12/15 02:20:06;;;;;;;32.63;17.40;;;;;;;1.88;100.00;97389.06;5114374;28;20523;-37
2021/12/15 02:22:35;;;;;;;36.87;16.60;;;;;;;1.82;100.00;97389.72;5114347;28;20798;-36
2021/12/15 02:25:06;;;;;;;38.00;16.47;;;;;;;1.84;100.00;97387.78;5113962;28;20485;-36
2021/12/15 02:27:35;;;;;;;42.60;17.50;;;;;;;1.90;100.00;97388.91;5115121;28;20426;-36
2021/12/15 02:30:18;;;;;;;26.97;14.33;;;;;;;1.84;100.00;97393.00;5114203;28;20860;-36
2021/12/15 02:32:59;;;;;;;34.77;15.67;;;;;;;1.84;100.00;97390.38;5113951;28;20441;-36
2021/12/15 02:38:13;;;;;;;35.50;15.83;;;;;;;1.85;100.00;97386.81;5113753;28;20468;-37
2021/12/15 02:40:40;;;;;;;40.43;17.20;;;;;;;1.73;100.00;97367.19;5113754;28;20438;-37
2021/12/15 02:43:08;;;;;;;33.77;15.77;;;;;;;1.85;100.00;97386.81;5113725;28;20445;-36
2021/12/15 02:45:37;;;;;;;24.53;13.37;;;;;;;1.84;100.00;97388.59;5113790;28;20449;-37
2021/12/15 02:48:05;;;;;;;30.90;16.53;;;;;;;1.89;100.00;97385.47;5113774;28;20957;-37
2021/12/15 02:50:34;;;;;;;30.07;17.10;;;;;;;1.83;100.00;97366.00;5113668;28;20482;-36
2021/12/15 02:53:01;;;;;;;29.20;13.53;;;;;;;1.88;100.00;97377.78;5114023;28;20520;-36
2021/12/15 02:55:31;;;;;;;23.00;13.37;;;;;;;1.96;100.00;97389.06;5113677;28;20817;-37
2021/12/15 02:57:58;;;;;;;34.43;14.83;;;;;;;1.98;100.00;97389.72;5113629;28;20446;-37
2021/12/15 03:00:32;;;;;;;36.63;14.27;;;;;;;1.92;100.00;97385.16;5115312;28;20442;-36
2021/12/15 03:06:07;;;;;;;32.23;14.10;;;;;;;1.91;100.00;97380.88;5055437;28;20440;-37
2021/12/15 03:08:52;;;;;;;29.90;15.13;;;;;;;1.92;100.00;97366.81;5054891;28;20468;-37
2021/12/15 03:16:52;;;;;;;30.50;16.90;;;;;;;1.93;100.00;97402.47;5118073;28;20532;-37
2021/12/15 03:19:20;;;;;;;25.60;12.83;;;;;;;1.86;100.00;97392.84;5117459;28;20462;-37
2021/12/15 03:21:47;;;;;;;29.93;15.03;;;;;;;1.76;100.00;97387.78;5117475;28;20494;-37
2021/12/15 03:24:18;;;;;;;29.83;15.07;;;;;;;1.71;100.00;97397.94;5117298;28;20517;-37
2021/12/15 03:26:56;;;;;;;33.30;13.33;;;;;;;1.81;100.00;97399.41;5117361;28;20431;-37
2021/12/15 03:35:20;;;;;;;35.47;13.93;;;;;;;1.74;100.00;97413.31;5116206;28;20469;-37
2021/12/15 03:37:50;;;;;;;32.90;14.20;;;;;;;1.75;100.00;97405.28;5117060;28;20483;-37
2021/12/15 03:40:20;;;;;;;32.97;16.97;;;;;;;1.74;100.00;97398.44;5117304;28;20879;-37
2021/12/15 03:42:53;;;;;;;29.10;16.60;;;;;;;1.72;100.00;97410.03;5118219;28;20482;-37
2021/12/15 03:45:26;;;;;;;22.87;13.00;;;;;;;1.69;100.00;97405.13;5117357;28;20434;-37
2021/12/15 03:47:55;;;;;;;27.93;14.63;;;;;;;1.57;100.00;97407.25;5117319;28;20438;-37
2021/12/15 03:50:25;;;;;;;26.10;11.07;;;;;;;1.49;100.00;97404.66;5117676;28;21089;-37
2021/12/15 03:52:52;;;;;;;32.97;12.17;;;;;;;1.52;100.00;97404.31;5116882;28;20466;-37
2021/12/15 03:55:22;;;;;;;28.10;12.20;;;;;;;1.55;100.00;97412.69;5117127;28;20438;-37
2021/12/15 03:57:52;;;;;;;25.87;12.47;;;;;;;1.44;100.00;97412.97;5116720;28;20533;-37
2021/12/15 04:00:21;;;;;;;27.97;14.67;;;;;;;1.41;100.00;97415.94;5116947;28;20446;-37
2021/12/15 04:02:49;;;;;;;25.73;11.60;;;;;;;1.43;100.00;97409.56;5116582;28;20498;-37
2021/12/15 04:05:20;;;;;;;28.43;13.00;;;;;;;1.46;100.00;97411.03;5116589;28;20532;-37
2021/12/15 04:07:49;;;;;;;37.33;15.30;;;;;;;1.49;100.00;97409.91;5116550;28;20940;-37
2021/12/15 04:10:21;;;;;;;32.53;13.43;;;;;;;1.52;100.00;97399.09;5116783;28;20573;-36
2021/12/15 04:12:50;;;;;;;29.10;17.40;;;;;;;1.56;100.00;97410.88;5115638;28;20435;-37
2021/12/15 04:15:26;;;;;;;34.47;19.53;;;;;;;1.50;100.00;97401.06;5116370;28;20442;-37
2021/12/15 04:17:55;;;;;;;30.67;15.00;;;;;;;1.47;100.00;97394.34;5116407;28;20491;-37
2021/12/15 04:20:26;;;;;;;57.70;24.47;;;;;;;1.53;100.00;97416.44;5116328;28;20465;-37
2021/12/15 04:22:53;;;;;;;33.00;16.00;;;;;;;1.52;100.00;97410.38;5116536;28;20441;-37
2021/12/15 04:25:24;;;;;;;36.10;14.37;;;;;;;1.50;100.00;97416.75;5116163;28;20438;-38
2021/12/15 04:27:57;;;;;;;34.30;15.20;;;;;;;1.45;100.00;97404.16;5116574;28;20430;-37
2021/12/15 04:30:26;;;;;;;32.03;16.47;;;;;;;1.49;100.00;97421.19;5116101;28;20509;-37
2021/12/15 04:32:55;;;;;;;32.90;15.30;;;;;;;1.52;100.00;97413.00;5116158;28;20503;-37
2021/12/15 04:35:22;;;;;;;79.93;25.43;;;;;;;1.48;100.00;97416.91;5116329;28;20520;-38
2021/12/15 04:37:51;;;;;;;50.70;22.70;;;;;;;1.60;100.00;97418.22;5115818;28;20478;-37
2021/12/15 04:40:21;;;;;;;28.10;13.17;;;;;;;1.63;100.00;97425.78;5115909;28;20933;-37
2021/12/15 04:42:49;;;;;;;34.70;16.20;;;;;;;1.60;100.00;97423.47;5115961;28;20430;-37
2021/12/15 04:45:21;;;;;;;28.73;14.13;;;;;;;1.53;100.00;97426.91;5115837;28;20470;-37
2021/12/15 04:47:51;;;;;;;43.20;17.10;;;;;;;1.52;100.00;97420.03;5115664;28;20431;-38
2021/12/15 04:50:21;;;;;;;31.70;14.00;;;;;;;1.46;100.00;97418.06;5116590;28;20824;-37
2021/12/15 04:52:49;;;;;;;21.63;12.77;;;;;;;1.30;100.00;97395.34;5116575;28;20528;-38
2021/12/15 04:55:19;;;;;;;35.03;14.63;;;;;;;1.44;100.00;97412.97;5115697;28;20832;-38
2021/12/15 04:57:46;;;;;;;23.30;12.03;;;;;;;1.45;100.00;97425.09;5115557;28;20476;-37
2021/12/15 05:00:22;;;;;;;21.90;10.83;;;;;;;1.36;100.00;97418.25;5115510;28;20999;-37
2021/12/15 05:02:52;;;;;;;23.20;10.00;;;;;;;1.31;100.00;97433.59;5115779;28;20499;-37
2021/12/15 05:05:20;;;;;;;32.40;11.90;;;;;;;1.31;100.00;97438.81;5115740;28;20470;-37
2021/12/15 05:07:49;;;;;;;26.90;11.73;;;;;;;1.32;100.00;97435.25;5115332;28;20442;-37
2021/12/15 05:10:18;;;;;;;22.70;12.20;;;;;;;1.34;100.00;97438.50;5115313;28;20485;-37
2021/12/15 05:13:01;;;;;;;;;;;;;;;;;;;;;
2021/12/15 05:15:31;;;;;;;30.37;13.10;;;;;;;1.32;100.00;97443.09;5112671;28;20472;-38
2021/12/15 05:17:59;;;;;;;22.57;11.53;;;;;;;1.32;100.00;97446.50;5113093;28;20525;-38
2021/12/15 05:20:27;;;;;;;28.17;13.03;;;;;;;1.31;100.00;97436.19;5113074;28;20533;-37
2021/12/15 05:22:55;;;;;;;29.40;10.70;;;;;;;1.19;100.00;97427.88;5112958;28;20453;-39
2021/12/15 05:25:22;;;;;;;26.17;15.33;;;;;;;1.25;100.00;97444.69;5112946;28;20442;-38
2021/12/15 05:27:50;;;;;;;29.00;14.23;;;;;;;1.12;100.00;97451.22;5112536;28;20933;-38
2021/12/15 05:30:19;;;;;;;21.90;13.07;;;;;;;1.02;100.00;97438.28;5112763;28;20572;-38
2021/12/15 05:32:49;;;;;;;28.90;13.80;;;;;;;1.16;100.00;97452.56;5113171;28;20446;-37
2021/12/15 05:35:22;;;;;;;26.40;12.13;;;;;;;1.14;100.00;97458.91;5113035;28;20803;-38
2021/12/15 05:37:50;;;;;;;27.00;12.77;;;;;;;1.18;100.00;97460.22;5112596;28;20560;-38
2021/12/15 05:40:18;;;;;;;30.93;14.60;;;;;;;1.18;100.00;97461.06;5112157;28;20470;-38
2021/12/15 05:42:45;;;;;;;22.37;12.33;;;;;;;1.22;100.00;97461.53;5112951;28;20470;-37
2021/12/15 05:45:13;;;;;;;21.10;12.53;;;;;;;1.21;100.00;97465.16;5112671;28;20937;-37
2021/12/15 05:47:41;;;;;;;18.70;10.37;;;;;;;1.11;100.00;97470.50;5112586;28;20444;-38
2021/12/15 05:50:14;;;;;;;37.23;18.13;;;;;;;1.11;100.00;97467.88;5112316;28;20587;-37
2021/12/15 05:52:42;;;;;;;31.50;15.80;;;;;;;1.12;100.00;97474.78;5112138;28;20513;-37
2021/12/15 05:55:12;;;;;;;29.53;14.00;;;;;;;1.11;100.00;97465.28;5111506;28;20473;-38
2021/12/15 05:57:40;;;;;;;26.80;13.33;;;;;;;1.12;100.00;97485.22;5112211;28;20928;-37
2021/12/15 06:00:12;;;;;;;27.30;15.30;;;;;;;1.12;100.00;97472.16;5112655;28;20446;-37
2021/12/15 06:02:40;;;;;;;24.20;12.10;;;;;;;1.05;100.00;97468.53;5112221;28;20807;-37
2021/12/15 06:05:11;;;;;;;26.33;13.27;;;;;;;1.00;100.00;97457.72;5112472;28;20470;-37
2021/12/15 06:07:39;;;;;;;28.10;13.37;;;;;;;1.12;100.00;97477.38;5112225;28;20517;-37
2021/12/15 06:10:09;;;;;;;34.47;15.00;;;;;;;1.15;100.00;97474.44;5112099;28;20576;-38
2021/12/15 06:12:37;;;;;;;45.60;21.73;;;;;;;1.15;100.00;97477.06;5112135;28;20478;-37
2021/12/15 06:15:05;;;;;;;36.00;14.80;;;;;;;1.07;100.00;97481.44;5111989;28;20457;-38
2021/12/15 06:17:32;;;;;;;36.17;15.10;;;;;;;1.09;100.00;97482.91;5112122;28;20442;-38
2021/12/15 06:20:00;;;;;;;28.87;14.33;;;;;;;1.15;100.00;97490.13;5111999;28;20446;-37
2021/12/15 06:22:31;;;;;;;26.27;13.60;;;;;;;1.18;100.00;97481.97;5112340;28;20442;-37
2021/12/15 06:24:59;;;;;;;59.37;27.83;;;;;;;1.20;100.00;97481.81;5112037;28;20901;-37
2021/12/15 06:27:29;;;;;;;40.10;20.50;;;;;;;1.14;100.00;97485.91;5112090;28;20804;-38
2021/12/15 06:29:56;;;;;;;33.30;14.13;;;;;;;1.10;100.00;97481.13;5111897;28;20486;-38
2021/12/15 06:32:24;;;;;;;36.73;16.50;;;;;;;1.07;100.00;97478.84;5111735;28;20516;-38
2021/12/15 06:34:51;;;;;;;35.07;15.07;;;;;;;1.03;100.00;97478.31;5111428;28;20875;-37
2021/12/15 06:37:19;;;;;;;34.60;16.60;;;;;;;1.05;100.00;97486.81;5111545;28;20905;-37
2021/12/15 06:39:47;;;;;;;49.90;26.47;;;;;;;1.07;100.00;97489.28;5112063;28;20529;-38
2021/12/15 06:42:15;;;;;;;26.33;12.27;;;;;;;0.92;100.00;97478.63;5111949;28;20449;-38
2021/12/15 06:44:43;;;;;;;32.90;15.63;;;;;;;1.09;100.00;97497.81;5111657;28;20458;-38
2021/12/15 06:58:12;;;;;;;44.73;15.70;;;;;;;0.95;100.00;97502.66;5111474;28;20410;-38
2021/12/15 07:00:45;;;;;;;33.73;14.77;;;;;;;0.99;100.00;97506.59;5111900;28;20435;-38
2021/12/15 07:03:13;;;;;;;38.00;17.10;;;;;;;0.96;100.00;97493.03;5111707;28;20427;-38
2021/12/15 07:05:44;;;;;;;32.33;16.10;;;;;;;0.99;100.00;97505.75;5111499;28;20933;-39
2021/12/15 07:08:12;;;;;;;32.73;13.37;;;;;;;0.97;100.00;97495.47;5111362;28;20529;-38
2021/12/15 07:10:44;;;;;;;22.17;11.70;;;;;;;1.01;100.00;97501.19;5111263;28;21014;-39
2021/12/15 07:13:12;;;;;;;28.60;10.63;;;;;;;0.95;100.00;97512.31;5111439;28;20437;-38
2021/12/15 07:15:40;;;;;;;33.13;14.63;;;;;;;0.92;100.00;97502.97;5111507;28;20477;-38
2021/12/15 07:18:11;;;;;;;23.47;11.83;;;;;;;0.91;100.00;97497.91;5111754;28;20437;-38
2021/12/15 07:20:44;;;;;;;37.67;13.53;;;;;;;0.88;100.00;97495.59;5112022;28;20470;-38
2021/12/15 07:23:13;;;;;;;38.53;16.10;;;;;;;0.89;100.00;97508.53;5113559;28;20503;-38
2021/12/15 07:25:47;;;;;;;33.33;15.97;;;;;;;0.95;100.00;97499.25;5113797;28;20786;-38
2021/12/15 07:28:26;;;;;;;42.20;17.27;;;;;;;0.95;100.00;97512.31;5114237;28;20449;-38
2021/12/15 07:30:54;;;;;;;112.77;42.43;;;;;;;0.96;100.00;97513.94;5113442;28;20480;-38
2021/12/15 07:33:22;;;;;;;49.50;20.30;;;;;;;0.82;100.00;97510.94;5113364;28;20445;-38
2021/12/15 07:35:50;;;;;;;42.93;20.37;;;;;;;0.98;100.00;97519.84;5113409;28;20605;-38
2021/12/15 07:38:17;;;;;;;37.03;11.53;;;;;;;1.00;100.00;97521.31;5113136;28;20560;-37
2021/12/15 07:40:46;;;;;;;31.37;17.07;;;;;;;0.85;100.00;97501.97;5113298;28;20797;-37
2021/12/15 07:43:23;;;;;;;35.80;16.17;;;;;;;0.96;100.00;97532.25;5113548;28;20522;-37
2021/12/15 07:45:55;;;;;;;28.73;15.13;;;;;;;1.06;100.00;97525.09;5113288;28;20430;-37
2021/12/15 07:48:26;;;;;;;29.17;14.83;;;;;;;0.91;100.00;97505.75;5116480;28;20820;-37
2021/12/15 07:50:58;;;;;;;39.70;18.27;;;;;;;1.05;100.00;97520.81;5116864;28;20490;-37
2021/12/15 07:53:26;;;;;;;38.03;20.20;;;;;;;1.07;100.00;97529.34;5116873;28;20517;-37
2021/12/15 07:55:56;;;;;;;53.77;21.77;;;;;;;1.06;100.00;97532.94;5117163;28;20438;-38
2021/12/15 07:58:25;;;;;;;49.20;21.80;;;;;;;1.03;100.00;97525.41;5117209;28;20438;-37
2021/12/15 08:00:55;;;;;;;48.30;21.27;;;;;;;1.06;100.00;97529.50;5117044;28;20438;-38
2021/12/15 08:03:23;;;;;;;84.43;28.60;;;;;;;1.07;100.00;97552.88;5117056;28;20839;-37
2021/12/15 08:05:53;;;;;;;33.10;16.23;;;;;;;1.06;100.00;97539.97;5116620;28;20458;-37
2021/12/15 08:08:21;;;;;;;135.37;49.67;;;;;;;0.95;100.00;97534.03;5116473;28;20438;-37
2021/12/15 08:10:49;;;;;;;51.80;24.93;;;;;;;0.99;100.00;97550.22;5116742;28;20493;-38
2021/12/15 08:13:19;;;;;;;121.50;51.10;;;;;;;1.03;100.00;97562.00;5116878;28;20450;-37
2021/12/15 08:15:46;;;;;;;93.73;41.87;;;;;;;1.05;100.00;97544.38;5115268;28;20474;-38
2021/12/15 08:18:13;;;;;;;167.97;62.77;;;;;;;1.04;100.00;97547.97;5114624;28;20438;-38
2021/12/15 08:20:41;;;;;;;191.23;68.50;;;;;;;1.10;100.00;97557.81;5114354;28;20468;-38
2021/12/15 08:23:09;;;;;;;83.60;33.23;;;;;;;1.07;100.00;97552.88;5114066;28;20450;-38
2021/12/15 08:25:37;;;;;;;68.60;30.93;;;;;;;1.00;100.00;97555.31;5114262;28;20481;-38
2021/12/15 08:28:07;;;;;;;81.43;36.73;;;;;;;0.96;100.00;97563.63;5114155;28;20495;-39
2021/12/15 08:30:37;;;;;;;74.90;32.50;;;;;;;1.01;100.00;97562.19;5113582;28;20909;-38
2021/12/15 08:33:12;;;;;;;107.43;30.80;;;;;;;1.02;100.00;97561.19;5114096;28;20442;-37
2021/12/15 08:35:42;;;;;;;113.00;37.23;;;;;;;0.95;100.00;97564.63;5113961;28;20487;-37
2021/12/15 08:38:11;;;;;;;66.70;28.90;;;;;;;0.98;100.00;97559.06;5113804;28;20474;-37
2021/12/15 08:40:39;;;;;;;59.10;23.97;;;;;;;1.05;100.00;97573.13;5113995;28;20470;-37
2021/12/15 08:43:07;;;;;;;41.07;20.10;;;;;;;0.98;100.00;97559.88;5113395;28;20477;-38
2021/12/15 08:45:39;;;;;;;53.43;23.27;;;;;;;1.00;100.00;97552.69;5114022;28;20491;-37
2021/12/15 08:48:08;;;;;;;37.83;18.77;;;;;;;0.99;100.00;97555.44;5116198;28;20434;-37
2021/12/15 08:50:37;;;;;;;50.73;23.93;;;;;;;1.04;100.00;97553.19;5115747;28;20482;-37
2021/12/15 08:53:09;;;;;;;86.30;32.73;;;;;;;1.05;100.00;97554.81;5115812;28;20533;-37
2021/12/15 08:55:37;;;;;;;58.07;23.80;;;;;;;1.05;100.00;97556.63;5115766;28;20434;-37
2021/12/15 08:58:06;;;;;;;57.17;22.07;;;;;;;1.04;100.00;97566.28;5115644;28;20517;-37
2021/12/15 09:00:36;;;;;;;29.33;16.00;;;;;;;1.08;100.00;97565.00;5115949;28;20857;-37
2021/12/15 09:03:03;;;;;;;40.27;23.53;;;;;;;1.11;100.00;97538.50;5115890;28;20803;-37
2021/12/15 09:05:31;;;;;;;31.43;16.50;;;;;;;1.16;100.00;97546.72;5115868;28;20515;-37
2021/12/15 09:08:00;;;;;;;30.60;12.47;;;;;;;1.34;100.00;97541.38;5115422;28;20446;-37
2021/12/15 09:10:30;;;;;;;37.43;14.37;;;;;;;1.39;99.85;97535.66;5115368;28;20492;-37
2021/12/15 09:12:59;;;;;;;26.00;13.50;;;;;;;1.37;99.03;97532.38;5115343;28;20481;-38
2021/12/15 09:15:27;;;;;;;34.37;15.00;;;;;;;1.40;98.85;97534.69;5115209;28;20921;-37
2021/12/15 09:30:14;;;;;;;33.87;16.50;;;;;;;1.68;98.99;97540.47;5109893;27;20563;-37
2021/12/15 09:32:41;;;;;;;25.77;17.17;;;;;;;1.77;97.99;97555.19;5109154;28;20526;-38
2021/12/15 09:35:10;;;;;;;24.93;13.90;;;;;;;1.81;96.94;97545.22;5109035;28;20442;-37
2021/12/15 09:37:38;;;;;;;19.23;10.70;;;;;;;1.76;96.44;97534.41;5108949;28;20513;-38
2021/12/15 09:40:06;;;;;;;18.20;10.23;;;;;;;1.80;96.44;97533.09;5108856;28;20537;-38
2021/12/15 09:42:37;;;;;;;18.07;9.43;;;;;;;1.81;96.25;97540.81;5108946;28;20548;-36
2021/12/15 09:45:21;;;;;;;20.07;9.60;;;;;;;1.84;96.22;97543.06;5108829;28;20457;-37
2021/12/15 09:48:04;;;;;;;13.07;8.17;;;;;;;1.84;96.36;97550.13;5108786;28;20466;-35
2021/12/15 10:04:28;;;;;;;34.33;12.43;;;;;;;1.76;96.99;97531.78;5108617;28;20959;-37
2021/12/15 10:07:18;;;;;;;42.03;17.30;;;;;;;1.77;97.31;97536.88;5108474;28;20812;-36
2021/12/15 10:18:24;;;;;;;16.33;7.90;;;;;;;1.78;96.22;97535.88;5108330;28;20823;-36
2021/12/15 10:20:54;;;;;;;21.97;11.37;;;;;;;1.81;96.51;97542.59;5108472;28;20492;-35
2021/12/15 10:23:24;;;;;;;22.77;9.83;;;;;;;1.81;96.46;97540.81;5107728;28;20518;-37
2021/12/15 10:25:54;;;;;;;25.00;10.23;;;;;;;1.82;96.19;97546.84;5107939;28;20435;-36
2021/12/15 10:28:24;;;;;;;15.30;9.43;;;;;;;1.88;95.90;97540.16;5113720;28;20857;-37
2021/12/15 10:30:54;;;;;;;14.90;8.90;;;;;;;1.89;96.15;97534.72;5115969;28;20533;-37
2021/12/15 10:33:25;;;;;;;13.40;8.30;;;;;;;1.91;95.46;97518.88;5115047;28;20842;-38
2021/12/15 10:35:57;;;;;;;14.40;7.50;;;;;;;1.89;95.53;97516.41;5114556;28;20481;-37
2021/12/15 10:38:30;;;;;;;17.30;8.70;;;;;;;1.86;95.42;97516.75;5114612;28;20430;-37
2021/12/15 10:41:02;;;;;;;16.07;9.63;;;;;;;1.84;95.77;97508.22;5114537;28;20437;-37
2021/12/15 10:43:33;;;;;;;23.80;7.87;;;;;;;1.79;96.20;97484.34;5114628;28;20423;-38
2021/12/15 10:46:05;;;;;;;25.67;10.37;;;;;;;1.79;96.25;97490.38;5114497;28;20435;-37
2021/12/15 10:48:37;;;;;;;26.20;14.53;;;;;;;1.86;96.82;97484.50;5114052;28;20478;-37
2021/12/15 10:51:23;;;;;;;22.03;13.43;;;;;;;1.82;95.66;97492.66;5114353;28;20894;-37
2021/12/15 10:53:51;;;;;;;25.20;10.77;;;;;;;1.86;96.12;97485.31;5114205;28;20473;-37
2021/12/15 10:56:21;;;;;;;26.63;13.27;;;;;;;1.88;96.25;97483.34;5114205;28;20864;-37
2021/12/15 10:58:52;;;;;;;27.13;11.97;;;;;;;1.86;95.80;97485.31;5114245;28;20977;-37
2021/12/15 11:01:40;;;;;;;33.10;16.03;;;;;;;1.90;95.86;97484.00;5113767;28;20509;-38
2021/12/15 11:04:38;;;;;;;33.93;12.30;;;;;;;1.96;95.88;97474.69;5114116;28;20446;-37
2021/12/15 11:07:26;;;;;;;26.07;11.10;;;;;;;2.01;96.00;97486.28;5113983;28;20438;-36
2021/12/15 11:09:58;;;;;;;38.33;15.00;;;;;;;1.91;95.90;97475.16;5114308;28;20481;-36
2021/12/15 11:12:29;;;;;;;27.97;14.30;;;;;;;2.04;94.98;97499.06;5114063;27;20427;-36
2021/12/15 11:14:59;;;;;;;44.87;22.53;;;;;;;2.03;95.34;97492.19;5113553;28;20521;-37
2021/12/15 11:17:28;;;;;;;35.63;16.57;;;;;;;2.03;95.52;97502.66;5113879;28;20427;-38
2021/12/15 11:20:05;;;;;;;29.60;11.87;;;;;;;2.07;95.51;97499.72;5114018;28;20808;-37
2021/12/15 11:22:40;;;;;;;29.90;15.77;;;;;;;2.09;95.37;97495.94;5113769;28;21140;-37
2021/12/15 11:25:11;;;;;;;20.87;11.00;;;;;;;2.13;95.66;97506.91;5114067;28;20508;-36
2021/12/15 11:27:40;;;;;;;25.90;10.77;;;;;;;2.14;95.81;97504.13;5113630;28;20535;-38
2021/12/15 11:30:13;;;;;;;24.27;11.63;;;;;;;2.14;95.30;97501.50;5113639;28;20481;-37
2021/12/15 11:32:44;;;;;;;36.70;17.00;;;;;;;2.16;95.48;97506.59;5114937;28;20437;-37
2021/12/15 11:35:17;;;;;;;39.30;15.97;;;;;;;2.22;95.26;97505.94;5115898;28;20442;-35
2021/12/15 11:37:56;;;;;;;58.87;24.73;;;;;;;2.22;95.21;97513.78;5106207;28;20495;-38
2021/12/15 11:40:27;;;;;;;31.70;13.97;;;;;;;2.21;95.67;97501.66;5113581;28;20426;-37
2021/12/15 11:42:55;;;;;;;36.80;17.73;;;;;;;2.24;95.18;97498.72;5114520;28;20920;-37
2021/12/15 11:45:23;;;;;;;38.13;17.70;;;;;;;2.28;94.51;97502.66;5115405;28;20525;-37
2021/12/15 11:47:50;;;;;;;39.60;19.27;;;;;;;2.37;95.18;97506.88;5115589;28;20449;-36
2021/12/15 11:50:22;;;;;;;28.67;14.80;;;;;;;2.35;94.84;97508.84;5115433;28;20496;-36
2021/12/15 11:52:51;;;;;;;43.20;15.30;;;;;;;2.23;93.92;97502.31;5115187;28;20518;-35
2021/12/15 11:55:28;;;;;;;39.97;18.27;;;;;;;2.32;94.54;97495.25;5115465;28;20472;-36
2021/12/15 11:57:57;;;;;;;63.70;26.10;;;;;;;2.37;94.41;97501.63;5115512;28;20457;-36
2021/12/15 12:00:28;;;;;;;40.50;19.90;;;;;;;2.37;94.37;97493.78;5115383;28;20443;-35
2021/12/15 12:02:58;;;;;;;40.30;19.17;;;;;;;2.38;94.09;97490.16;5114966;28;20928;-34
2021/12/15 12:05:28;;;;;;;33.03;17.73;;;;;;;2.41;94.97;97486.38;5114968;28;20545;-36
2021/12/15 12:07:59;;;;;;;33.03;14.37;;;;;;;2.40;94.38;97482.94;5114932;28;20470;-36
2021/12/15 12:10:33;;;;;;;26.83;10.50;;;;;;;2.34;93.98;97483.59;5115735;28;20442;-36
2021/12/15 12:13:10;;;;;;;22.07;12.83;;;;;;;2.30;93.91;97479.69;5114889;28;20856;-37
2021/12/15 12:15:40;;;;;;;21.37;11.57;;;;;;;2.24;94.88;97483.00;5114828;28;20439;-36
2021/12/15 12:18:10;;;;;;;17.10;7.87;;;;;;;2.24;95.13;97489.03;5114650;28;20442;-37
2021/12/15 12:20:40;;;;;;;27.37;11.53;;;;;;;2.23;95.00;97486.59;5114655;28;20465;-36
2021/12/15 12:23:10;;;;;;;21.03;11.37;;;;;;;2.20;95.29;97486.94;5114633;28;20453;-36
2021/12/15 12:25:40;;;;;;;25.07;13.40;;;;;;;2.17;95.83;97487.25;5114610;27;20423;-37
2021/12/15 12:28:09;;;;;;;32.27;10.80;;;;;;;2.15;95.17;97491.84;5114287;28;20474;-35
2021/12/15 12:30:40;;;;;;;19.27;9.93;;;;;;;2.16;95.00;97485.63;5114559;28;20524;-36
2021/12/15 12:33:10;;;;;;;30.67;15.37;;;;;;;2.14;95.22;97483.16;5114460;28;20949;-34
2021/12/15 12:35:41;;;;;;;20.20;11.80;;;;;;;2.11;95.51;97474.81;5114841;28;20426;-37
2021/12/15 12:38:14;;;;;;;26.00;12.60;;;;;;;2.15;95.65;97468.25;5114423;28;20445;-37
2021/12/15 12:40:49;;;;;;;28.20;12.87;;;;;;;2.20;95.71;97476.44;5114417;28;20852;-37
2021/12/15 12:43:22;;;;;;;30.90;16.20;;;;;;;2.13;95.61;97484.16;5114390;28;20430;-37
2021/12/15 12:46:09;;;;;;;27.10;14.00;;;;;;;2.15;95.97;97476.09;5114328;28;20517;-37
2021/12/15 12:59:42;;;;;;;29.07;12.37;;;;;;;2.19;95.15;97467.75;5103522;28;20498;-37
2021/12/15 13:02:42;;;;;;;22.47;11.73;;;;;;;2.29;95.55;97495.59;5103295;28;20447;-37